NCAR-RAP Real-Time Weather Data

Output produced by METARs form (23 February 2020  02:12 UTC)
found at http://weather.rap.ucar.edu/surface/
 
KRAP 230152Z 24004KT 10SM CLR 04/M07 A2990 RMK AO2 SLP148 T00391072 $
KRAP 230052Z 06008KT 10SM CLR 02/M06 A2988 RMK AO2 SLP146 T00171061 $
KRAP 222352Z 06006KT 10SM CLR 09/M07 A2988 RMK AO2 SLP132 T00941067 10133 20094 55001 $
KRAP 222252Z 06008KT 10SM CLR 12/M07 A2988 RMK AO2 SLP128 T01171072 $
KRAP 222152Z 06008KT 10SM CLR 13/M08 A2988 RMK AO2 SLP128 T01281078 $
KRAP 222052Z 02005KT 10SM CLR 13/M10 A2989 RMK AO2 SLP132 T01331100 56020 $
KRAP 221952Z 02009KT 10SM CLR 13/M08 A2990 RMK AO2 SLP138 T01281078 $
KRAP 221852Z VRB03KT 10SM CLR 12/M11 A2993 RMK AO2 SLP150 T01221106 $
KRAP 221752Z 02005KT 10SM CLR 12/M12 A2995 RMK AO2 SLP154 T01221117 10122 21028 58001 $
KRAP 221652Z 24003KT 10SM CLR 11/M12 A2996 RMK AO2 SLP163 T01061117 $
KRAP 221552Z 31005KT 10SM CLR 08/M09 A2996 RMK AO2 SLP165 T00781094 $
KRAP 221452Z 29005KT 10SM CLR 04/M09 A2995 RMK AO2 SLP171 T00391094 53010 $
KRAP 221352Z 30007KT 10SM CLR 00/M11 A2993 RMK AO2 SLP163 T00001111 $
KRAP 221252Z 31005KT 10SM CLR M01/M11 A2993 RMK AO2 SLP158 T10061111 $
KRAP 221152Z AUTO 30010KT 10SM CLR 02/M10 A2992 RMK AO2 SLP148 T00171100 10017 21028 $
KRAP 221052Z AUTO 31007KT 10SM CLR 01/M08 A2990 RMK AO2 SLP139 T00111083 $
KRAP 220952Z AUTO 34006KT 10SM CLR 01/M08 A2990 RMK AO2 SLP137 T00061078
KRAP 220852Z AUTO 31007KT 10SM CLR M02/M08 A2990 RMK AO2 SLP141 T10171083 56018
KRAP 220752Z AUTO 29003KT 10SM CLR M02/M09 A2992 RMK AO2 SLP148 T10171089
KRAP 220652Z AUTO 00000KT 10SM CLR M02/M07 A2994 RMK AO2 SLP154 T10171072 401221094
KRAP 220552Z AUTO 00000KT 10SM CLR 00/M07 A2996 RMK AO2 SLP161 T00001072 10072 21028 57010
KRAP 220452Z 00000KT 10SM CLR M02/M07 A2998 RMK AO2 SLP170 T10171067
KRAP 220352Z 00000KT 10SM CLR M01/M07 A2998 RMK AO2 SLP177 T10061067
KRAP 220252Z 00000KT 10SM CLR M03/M07 A3000 RMK AO2 SLP189 T10281067 58010
KRAP 220152Z 00000KT 10SM CLR 02/M07 A3001 RMK AO2 SLP196 T00171067
KRAP 220052Z 11004KT 10SM CLR 03/M06 A3003 RMK AO2 SLP201 T00331056
KRAP 212352Z 12006KT 10SM CLR 07/M05 A3003 RMK AO2 SLP198 T00721050 10122 20072 57016
KRAP 212252Z 13006KT 10SM CLR 11/M06 A3005 RMK AO2 SLP200 T01061061
KRAP 212152Z 13007KT 10SM CLR 11/M09 A3007 RMK AO2 SLP207 T01111094
KRAP 212052Z 15008KT 10SM CLR 12/M09 A3008 RMK AO2 SLP211 T01171094 58025
KRAP 211952Z 12008KT 10SM CLR 12/M11 A3010 RMK AO2 SLP218 T01171111
KRAP 211852Z 09005KT 10SM CLR 12/M12 A3014 RMK AO2 SLP232 T01171117
KRAP 211752Z 00000KT 10SM CLR 11/M11 A3016 RMK AO2 SLP237 T01111106 10111 21078 50003
KRAP 211652Z 27004KT 10SM CLR 09/M09 A3017 RMK AO2 SLP241 T00891094
KRAP 211552Z 27004KT 10SM CLR 05/M09 A3016 RMK AO2 SLP245 T00501089
KRAP 211452Z 29008KT 10SM CLR 01/M11 A3015 RMK AO2 SLP247 T00111106 53005
KRAP 211352Z 32004KT 10SM CLR M04/M14 A3014 RMK AO2 SLP249 T10441144
KRAP 211252Z AUTO 30003KT 10SM CLR M06/M15 A3014 RMK AO2 SLP248 T10611150
KRAP 211152Z AUTO 00000KT 10SM CLR M06/M15 A3013 RMK AO2 SLP240 7//// T10611150 11050 21094 55006
KRAP 211052Z AUTO 17003KT 10SM CLR M07/M14 A3012 RMK AO2 SLP236 T10721144
KRAP 210952Z AUTO 00000KT 10SM CLR M08/M14 A3014 RMK AO2 SLP240 T10831144
KRAP 210852Z AUTO 29005KT 10SM CLR M07/M13 A3015 RMK AO2 SLP246 T10721128 58010
KRAP 210752Z AUTO 33007KT 10SM CLR M07/M13 A3017 RMK AO2 SLP255 T10721128
KRAP 210652Z AUTO 07003KT 10SM CLR M07/M13 A3017 RMK AO2 SLP261 T10721128 400441172
KRAP 210552Z AUTO 11005KT 10SM CLR M06/M12 A3019 RMK AO2 SLP265 T10561122 10022 21072 58022
KRAP 210452Z 10003KT 10SM CLR M06/M13 A3021 RMK AO2 SLP280 T10611128
KRAP 210352Z 14004KT 10SM CLR M06/M12 A3024 RMK AO2 SLP292 T10611117
KRAP 210252Z 13003KT 10SM CLR M06/M11 A3026 RMK AO2 SLP302 T10561106 58010